createdAt,value
2018-11-03T00:01:58.165Z,18.47
2018-11-03T00:04:26.849Z,15.83
2018-11-03T00:06:55.578Z,16.93
2018-11-03T00:09:24.265Z,17.53
2018-11-03T00:11:52.988Z,16.47
2018-11-03T00:14:21.675Z,17.57
2018-11-03T00:16:50.404Z,16.43
2018-11-03T00:19:19.089Z,15.83
2018-11-03T00:21:47.813Z,16.17
2018-11-03T00:24:16.492Z,16.00
2018-11-03T00:26:45.276Z,15.93
2018-11-03T00:29:13.963Z,18.10
2018-11-03T00:31:42.715Z,19.27
2018-11-03T00:34:11.414Z,18.07
2018-11-03T00:36:40.159Z,17.63
2018-11-03T00:39:10.596Z,17.13
2018-11-03T00:41:39.339Z,18.80
2018-11-03T00:44:08.821Z,19.57
2018-11-03T00:46:37.613Z,18.27
2018-11-03T00:49:06.344Z,17.30
2018-11-03T00:51:35.097Z,20.77
2018-11-03T00:54:03.809Z,20.00
2018-11-03T00:56:32.515Z,18.37
2018-11-03T00:59:01.214Z,21.93
2018-11-03T01:01:29.936Z,18.87
2018-11-03T01:03:58.600Z,20.23
2018-11-03T01:06:27.339Z,21.17
2018-11-03T01:08:56.089Z,21.37
2018-11-03T01:11:24.768Z,20.63
2018-11-03T01:13:53.457Z,19.37
2018-11-03T01:16:22.197Z,19.60
2018-11-03T01:18:50.920Z,19.67
2018-11-03T01:21:19.640Z,19.10
2018-11-03T01:23:48.348Z,18.83
2018-11-03T01:26:17.138Z,17.57
2018-11-03T01:28:45.863Z,17.90
2018-11-03T01:31:14.546Z,18.20
2018-11-03T01:33:43.246Z,18.73
2018-11-03T01:36:11.986Z,19.17
2018-11-03T01:38:40.939Z,20.13
2018-11-03T01:41:09.661Z,20.63
2018-11-03T01:43:38.388Z,20.60
2018-11-03T01:46:07.085Z,19.07
2018-11-03T01:48:35.801Z,18.43
2018-11-03T01:51:04.488Z,18.87
2018-11-03T01:53:33.209Z,19.70
2018-11-03T01:56:02.014Z,21.60
2018-11-03T01:58:30.684Z,20.77
2018-11-03T02:00:59.394Z,20.37
2018-11-03T02:03:28.071Z,17.97
2018-11-03T02:05:56.779Z,18.30
2018-11-03T02:08:25.527Z,17.90
2018-11-03T02:10:54.253Z,17.57
2018-11-03T02:13:22.933Z,17.20
2018-11-03T02:15:51.633Z,17.40
2018-11-03T02:18:20.352Z,16.33
2018-11-03T02:20:49.064Z,17.00
2018-11-03T02:23:17.738Z,19.70
2018-11-03T02:25:46.445Z,16.57
2018-11-03T02:28:15.126Z,19.53
2018-11-03T02:30:43.943Z,16.67
2018-11-03T02:33:12.614Z,16.43
2018-11-03T02:35:41.309Z,14.80
2018-11-03T02:38:10.005Z,14.80
2018-11-03T02:40:38.683Z,14.57
2018-11-03T02:43:07.409Z,14.10
2018-11-03T02:45:36.081Z,14.17
2018-11-03T02:48:04.831Z,15.03
2018-11-03T02:50:33.547Z,14.63
2018-11-03T02:53:02.299Z,14.83
2018-11-03T02:55:30.977Z,14.97
2018-11-03T02:57:59.687Z,15.37
2018-11-03T03:00:28.444Z,15.40
2018-11-03T03:02:57.226Z,15.03
2018-11-03T03:05:25.974Z,14.47
2018-11-03T03:07:54.674Z,12.77
2018-11-03T03:10:23.421Z,14.37
2018-11-03T03:12:52.193Z,13.57
2018-11-03T03:15:20.885Z,14.97
2018-11-03T03:17:49.557Z,15.80
2018-11-03T03:20:18.279Z,15.40
2018-11-03T03:22:47.012Z,16.13
2018-11-03T03:25:15.732Z,17.77
2018-11-03T03:27:44.425Z,17.57
2018-11-03T03:30:13.144Z,17.07
2018-11-03T03:32:41.923Z,17.73
2018-11-03T03:35:10.808Z,18.83
2018-11-03T03:37:39.462Z,20.30
2018-11-03T03:40:09.194Z,17.30
2018-11-03T03:42:37.889Z,17.40
2018-11-03T03:45:08.001Z,17.17
2018-11-03T03:47:36.745Z,16.70
2018-11-03T03:50:06.547Z,17.20
2018-11-03T03:52:35.274Z,13.87
2018-11-03T03:55:04.042Z,14.93
2018-11-03T03:57:32.758Z,16.30
2018-11-03T04:00:01.474Z,15.27
2018-11-03T04:02:30.151Z,13.73
2018-11-03T04:04:58.869Z,13.73
2018-11-03T04:07:34.184Z,13.20
2018-11-03T04:10:02.935Z,15.47
2018-11-03T04:12:31.652Z,13.70
2018-11-03T04:15:00.395Z,13.67
2018-11-03T04:17:29.085Z,14.00
2018-11-03T04:19:57.810Z,14.60
2018-11-03T04:22:26.571Z,13.23
2018-11-03T04:24:55.281Z,13.03
2018-11-03T04:27:23.985Z,12.57
2018-11-03T04:29:52.667Z,13.60
2018-11-03T04:32:21.415Z,13.33
2018-11-03T04:34:50.144Z,14.53
2018-11-03T04:37:18.844Z,12.90
2018-11-03T04:39:47.603Z,12.30
2018-11-03T04:42:16.269Z,12.20
2018-11-03T04:44:45.199Z,13.57
2018-11-03T04:47:13.944Z,12.17
2018-11-03T04:49:42.636Z,12.53
2018-11-03T04:52:11.461Z,12.83
2018-11-03T04:54:40.177Z,12.13
2018-11-03T04:57:08.867Z,12.60
2018-11-03T04:59:37.578Z,11.77
2018-11-03T05:02:06.332Z,12.60
2018-11-03T05:04:35.052Z,11.80
2018-11-03T05:07:03.769Z,13.43
2018-11-03T05:09:32.487Z,11.87
2018-11-03T05:12:01.300Z,11.77
2018-11-03T05:14:29.983Z,12.33
2018-11-03T05:16:58.715Z,13.73
2018-11-03T05:19:27.462Z,12.50
2018-11-03T05:21:56.282Z,13.83
2018-11-03T05:24:25.010Z,13.50
2018-11-03T05:26:53.758Z,14.30
2018-11-03T05:29:22.468Z,13.93
2018-11-03T05:31:51.225Z,14.00
2018-11-03T05:34:19.889Z,14.87
2018-11-03T05:36:48.573Z,13.83
2018-11-03T05:39:17.281Z,13.57
2018-11-03T05:41:45.970Z,12.77
2018-11-03T05:44:14.736Z,13.47
2018-11-03T05:46:43.520Z,13.83
2018-11-03T05:49:12.161Z,14.40
2018-11-03T05:51:40.837Z,15.20
2018-11-03T05:54:09.606Z,14.67
2018-11-03T05:56:38.281Z,14.47
2018-11-03T05:59:07.067Z,17.60
2018-11-03T06:01:35.755Z,15.53
2018-11-03T06:04:04.562Z,16.47
2018-11-03T06:06:33.238Z,16.50
2018-11-03T06:09:02.567Z,15.43
2018-11-03T06:11:31.277Z,15.17
2018-11-03T06:13:59.971Z,16.63
2018-11-03T06:16:28.722Z,14.90
2018-11-03T06:18:57.456Z,15.17
2018-11-03T06:21:26.239Z,15.83
2018-11-03T06:23:54.949Z,16.73
2018-11-03T06:26:23.657Z,15.50
2018-11-03T06:28:52.332Z,16.67
2018-11-03T06:31:21.078Z,17.67
2018-11-03T06:33:49.850Z,17.37
2018-11-03T06:36:18.622Z,16.47
2018-11-03T06:38:47.334Z,16.23
2018-11-03T06:41:16.325Z,16.03
2018-11-03T06:43:45.055Z,15.93
2018-11-03T06:46:13.806Z,15.97
2018-11-03T06:48:42.862Z,15.80
2018-11-03T06:51:11.625Z,14.73
2018-11-03T06:53:40.318Z,14.63
2018-11-03T06:56:09.265Z,14.17
2018-11-03T06:58:37.983Z,15.97
2018-11-03T07:01:06.744Z,15.17
2018-11-03T07:03:35.692Z,15.80
2018-11-03T07:06:04.433Z,15.90
2018-11-03T07:08:33.174Z,16.37
2018-11-03T07:11:01.917Z,14.77
2018-11-03T07:13:30.634Z,13.70
2018-11-03T07:15:59.320Z,12.90
2018-11-03T07:18:28.117Z,12.20
2018-11-03T07:20:56.829Z,11.67
2018-11-03T07:23:25.642Z,12.47
2018-11-03T07:25:54.353Z,12.60
2018-11-03T07:28:23.133Z,12.20
2018-11-03T07:30:51.853Z,12.27
2018-11-03T07:33:20.633Z,13.03
2018-11-03T07:35:49.278Z,12.33
2018-11-03T07:38:18.014Z,12.70
2018-11-03T07:40:46.782Z,12.27
2018-11-03T07:43:15.482Z,11.43
2018-11-03T07:45:44.202Z,10.67
2018-11-03T07:48:13.094Z,11.57
2018-11-03T07:50:41.708Z,10.27
2018-11-03T07:53:10.473Z,11.73
2018-11-03T07:55:39.176Z,12.23
2018-11-03T07:58:07.881Z,11.90
2018-11-03T08:00:36.692Z,11.70
2018-11-03T08:03:05.398Z,10.53
2018-11-03T08:05:34.303Z,11.23
2018-11-03T08:08:03.124Z,10.70
2018-11-03T08:10:32.002Z,10.90
2018-11-03T08:13:00.737Z,10.50
2018-11-03T08:15:29.438Z,9.90
2018-11-03T08:17:58.100Z,9.23
2018-11-03T08:20:26.855Z,9.47
2018-11-03T08:22:55.573Z,9.47
2018-11-03T08:25:24.340Z,10.33
2018-11-03T08:27:53.026Z,10.80
2018-11-03T08:30:21.701Z,11.97
2018-11-03T08:32:50.434Z,11.60
2018-11-03T08:35:19.143Z,12.70
2018-11-03T08:37:47.895Z,11.70
2018-11-03T08:40:16.602Z,11.60
2018-11-03T08:42:45.334Z,11.37
2018-11-03T08:45:14.226Z,12.77
2018-11-03T08:47:42.936Z,12.37
2018-11-03T08:50:12.565Z,10.97
2018-11-03T08:52:41.740Z,10.23
2018-11-03T08:55:11.694Z,10.90
2018-11-03T08:57:40.513Z,10.80
2018-11-03T09:00:11.823Z,10.47
2018-11-03T09:02:40.981Z,9.83
2018-11-03T09:05:10.522Z,9.53
2018-11-03T09:07:39.652Z,8.60
2018-11-03T09:10:10.608Z,9.13
2018-11-03T09:12:39.339Z,9.97
2018-11-03T09:15:09.980Z,9.77
2018-11-03T09:17:39.739Z,9.50
2018-11-03T09:20:09.605Z,10.00
2018-11-03T09:22:39.151Z,9.73
2018-11-03T09:25:10.804Z,9.60
2018-11-03T09:27:41.383Z,9.43
2018-11-03T09:30:14.007Z,10.07
2018-11-03T09:32:42.802Z,10.40
2018-11-03T09:35:12.625Z,11.37
2018-11-03T09:37:41.341Z,11.83
2018-11-03T09:40:12.645Z,10.53
2018-11-03T09:42:41.998Z,10.97
2018-11-03T09:45:11.541Z,10.40
2018-11-03T09:47:40.609Z,11.20
2018-11-03T09:50:10.758Z,11.17
2018-11-03T09:52:39.882Z,11.23
2018-11-03T09:55:11.049Z,11.30
2018-11-03T09:57:39.805Z,11.97
2018-11-03T10:00:11.134Z,11.97
2018-11-03T10:02:40.361Z,12.63
2018-11-03T10:05:10.324Z,13.40
2018-11-03T10:07:39.034Z,12.50
2018-11-03T10:10:12.129Z,12.70
2018-11-03T10:12:40.884Z,13.23
2018-11-03T10:15:10.145Z,13.03
2018-11-03T10:17:38.916Z,14.87
2018-11-03T10:20:08.317Z,13.93
2018-11-03T10:22:37.281Z,14.83
2018-11-03T10:25:10.346Z,14.97
2018-11-03T10:27:39.221Z,14.53
2018-11-03T10:30:09.358Z,14.87
2018-11-03T10:32:38.850Z,15.13
2018-11-03T10:35:08.015Z,15.57
2018-11-03T10:37:36.977Z,15.07
2018-11-03T10:40:07.513Z,14.90
2018-11-03T10:42:36.321Z,15.80
2018-11-03T10:45:06.887Z,14.27
2018-11-03T10:47:35.624Z,13.73
2018-11-03T10:50:06.350Z,15.80
2018-11-03T10:52:35.076Z,14.23
2018-11-03T10:55:03.882Z,14.77
2018-11-03T10:57:32.609Z,14.40
2018-11-03T11:00:01.377Z,14.43
2018-11-03T11:02:35.236Z,13.90
2018-11-03T11:05:09.221Z,13.90
2018-11-03T11:07:43.110Z,13.63
2018-11-03T11:10:25.191Z,13.27
2018-11-03T11:12:54.229Z,15.00
2018-11-03T11:15:22.960Z,15.40
2018-11-03T11:17:51.638Z,14.70
2018-11-03T11:20:20.343Z,15.10
2018-11-03T11:22:49.029Z,15.33
2018-11-03T11:25:17.816Z,16.53
2018-11-03T11:27:46.432Z,15.87
2018-11-03T11:30:15.157Z,15.97
2018-11-03T11:32:44.015Z,16.07
2018-11-03T11:35:12.604Z,16.87
2018-11-03T11:37:41.449Z,16.10
2018-11-03T11:40:10.167Z,16.57
2018-11-03T11:42:38.996Z,15.63
2018-11-03T11:45:07.855Z,16.00
2018-11-03T11:47:36.565Z,15.50
2018-11-03T11:50:05.768Z,15.77
2018-11-03T11:52:34.485Z,16.27
2018-11-03T11:55:03.208Z,15.93
2018-11-03T11:57:31.905Z,14.67
2018-11-03T12:00:00.581Z,13.93
2018-11-03T12:02:29.347Z,15.23
2018-11-03T12:04:58.018Z,15.80
2018-11-03T12:07:26.724Z,14.93
2018-11-03T12:09:55.499Z,15.37
2018-11-03T12:12:24.205Z,15.40
2018-11-03T12:14:52.936Z,16.20
2018-11-03T12:17:21.654Z,15.80
2018-11-03T12:19:50.424Z,15.17
2018-11-03T12:22:19.138Z,15.63
2018-11-03T12:24:47.820Z,15.37
2018-11-03T12:27:16.549Z,14.63
2018-11-03T12:29:45.230Z,14.13
2018-11-03T12:32:13.937Z,13.43
2018-11-03T12:34:42.929Z,15.10
2018-11-03T12:37:11.728Z,14.33
2018-11-03T12:39:40.462Z,15.47
2018-11-03T12:42:09.165Z,14.47
2018-11-03T12:44:38.035Z,15.20
2018-11-03T12:47:06.777Z,14.30
2018-11-03T12:49:35.461Z,15.53
2018-11-03T12:52:04.240Z,14.13
2018-11-03T12:54:32.964Z,13.60
2018-11-03T12:57:01.660Z,12.90
2018-11-03T12:59:30.403Z,13.80
2018-11-03T13:01:59.094Z,13.53
2018-11-03T13:04:27.851Z,13.67
2018-11-03T13:06:56.648Z,12.47
2018-11-03T13:09:25.383Z,13.10
2018-11-03T13:11:54.056Z,12.93
2018-11-03T13:14:22.742Z,12.87
2018-11-03T13:16:51.470Z,11.73
2018-11-03T13:19:20.185Z,12.10
2018-11-03T13:21:48.863Z,11.90
2018-11-03T13:24:17.546Z,11.83
2018-11-03T13:26:46.266Z,12.47
2018-11-03T13:29:14.960Z,12.07
2018-11-03T13:31:43.681Z,12.70
2018-11-03T13:34:12.352Z,14.27
2018-11-03T13:36:41.081Z,14.87
2018-11-03T13:39:10.636Z,15.00
2018-11-03T13:41:39.380Z,15.00
2018-11-03T13:44:08.113Z,15.93
2018-11-03T13:46:37.293Z,16.63
2018-11-03T13:49:06.060Z,16.83
2018-11-03T13:51:34.746Z,14.87
2018-11-03T13:54:03.483Z,15.47
2018-11-03T13:56:32.327Z,15.77
2018-11-03T13:59:00.996Z,13.17
2018-11-03T14:01:29.752Z,12.70
2018-11-03T14:03:58.505Z,12.93
2018-11-03T14:06:27.251Z,12.10
2018-11-03T14:08:55.920Z,11.00
2018-11-03T14:11:24.613Z,11.20
2018-11-03T14:13:53.308Z,10.63
2018-11-03T14:16:22.056Z,11.03
2018-11-03T14:18:50.739Z,10.67
2018-11-03T14:21:19.414Z,10.40
2018-11-03T14:23:48.130Z,9.53
2018-11-03T14:26:16.818Z,8.80
2018-11-03T14:28:45.601Z,8.03
2018-11-03T14:31:14.278Z,7.93
2018-11-03T14:33:43.032Z,7.50
2018-11-03T14:36:11.810Z,8.07
2018-11-03T14:38:40.502Z,7.10
2018-11-03T14:41:09.238Z,6.90
2018-11-03T14:43:37.908Z,7.00
2018-11-03T14:46:06.681Z,6.50
2018-11-03T14:48:35.346Z,6.70
2018-11-03T14:51:04.123Z,6.07
2018-11-03T14:53:32.813Z,6.93
2018-11-03T14:56:01.589Z,6.53
2018-11-03T14:58:30.414Z,6.30
2018-11-03T15:00:59.126Z,6.40
2018-11-03T15:03:27.839Z,5.90
2018-11-03T15:05:56.545Z,6.20
2018-11-03T15:08:25.239Z,6.30
2018-11-03T15:10:53.961Z,5.93
2018-11-03T15:13:22.702Z,6.60
2018-11-03T15:15:51.461Z,6.83
2018-11-03T15:18:20.121Z,6.70
2018-11-03T15:20:48.821Z,6.97
2018-11-03T15:23:17.561Z,6.97
2018-11-03T15:25:46.280Z,7.43
2018-11-03T15:28:14.952Z,7.30
2018-11-03T15:30:43.685Z,7.10
2018-11-03T15:33:12.388Z,7.87
2018-11-03T15:35:41.052Z,7.97
2018-11-03T15:38:09.834Z,7.73
2018-11-03T15:40:38.514Z,7.87
2018-11-03T15:43:07.219Z,8.90
2018-11-03T15:45:35.898Z,8.27
2018-11-03T15:48:04.652Z,8.47
2018-11-03T15:50:33.402Z,8.70
2018-11-03T15:53:02.081Z,8.93
2018-11-03T15:55:30.805Z,8.77
2018-11-03T15:57:59.470Z,9.73
2018-11-03T16:00:28.184Z,9.63
2018-11-03T16:02:56.929Z,9.97
2018-11-03T16:05:25.620Z,9.93
2018-11-03T16:07:54.286Z,10.00
2018-11-03T16:10:23.013Z,10.47
2018-11-03T16:12:51.712Z,10.23
2018-11-03T16:15:27.206Z,10.30
2018-11-03T16:17:55.921Z,10.60
2018-11-03T16:20:24.619Z,11.00
2018-11-03T16:22:53.411Z,10.07
2018-11-03T16:25:22.111Z,11.80
2018-11-03T16:27:50.800Z,11.50
2018-11-03T16:30:19.578Z,12.03
2018-11-03T16:32:48.380Z,11.70
2018-11-03T16:35:17.151Z,11.93
2018-11-03T16:37:45.859Z,12.17
2018-11-03T16:40:15.517Z,12.47
2018-11-03T16:42:45.133Z,12.57
2018-11-03T16:45:15.163Z,13.57
2018-11-03T16:47:44.189Z,13.13
2018-11-03T16:50:13.850Z,12.20
2018-11-03T16:52:42.773Z,11.67
2018-11-03T16:55:12.577Z,13.23
2018-11-03T16:57:41.324Z,11.73
2018-11-03T17:00:12.494Z,12.40
2018-11-03T17:02:41.602Z,10.97
2018-11-03T17:05:11.499Z,11.73
2018-11-03T17:07:40.280Z,13.53
2018-11-03T17:10:11.566Z,13.57
2018-11-03T17:12:41.503Z,14.17
2018-11-03T17:15:10.357Z,12.33
2018-11-03T17:17:39.345Z,9.40
2018-11-03T17:20:08.405Z,7.77
2018-11-03T17:22:37.441Z,7.63
2018-11-03T17:25:07.703Z,9.60
2018-11-03T17:27:36.372Z,10.00
2018-11-03T17:30:06.090Z,10.13
2018-11-03T17:32:34.832Z,11.03
2018-11-03T17:35:03.524Z,10.17
2018-11-03T17:37:32.280Z,9.77
2018-11-03T17:40:01.001Z,12.00
2018-11-03T17:42:29.775Z,11.70
2018-11-03T17:44:58.468Z,11.37
2018-11-03T17:47:27.236Z,11.47
2018-11-03T17:49:55.964Z,12.00
2018-11-03T17:52:24.703Z,12.47
2018-11-03T17:54:53.693Z,12.23
2018-11-03T17:57:22.383Z,11.87
2018-11-03T17:59:51.126Z,12.43
2018-11-03T18:02:20.945Z,13.00
2018-11-03T18:04:49.809Z,13.57
2018-11-03T18:07:18.545Z,11.53
2018-11-03T18:09:47.294Z,9.67
2018-11-03T18:12:16.064Z,8.83
2018-11-03T18:14:44.802Z,9.93
2018-11-03T18:17:13.524Z,9.70
2018-11-03T18:19:42.246Z,9.77
2018-11-03T18:22:10.969Z,9.13
2018-11-03T18:24:39.694Z,9.67
2018-11-03T18:27:08.518Z,9.83
2018-11-03T18:29:37.217Z,11.03
2018-11-03T18:32:06.158Z,11.60
2018-11-03T18:34:34.887Z,12.53
2018-11-03T18:37:03.577Z,11.97
2018-11-03T18:39:32.288Z,10.93
2018-11-03T18:43:11.933Z,10.57
2018-11-03T18:45:40.640Z,10.37
2018-11-03T18:48:09.407Z,10.73
2018-11-03T18:50:38.238Z,11.63
2018-11-03T18:53:07.033Z,11.97
2018-11-03T18:55:35.820Z,11.40
2018-11-03T18:58:04.545Z,11.30
2018-11-03T19:00:33.281Z,10.90
2018-11-03T19:03:01.976Z,11.83
2018-11-03T19:05:30.701Z,13.37
2018-11-03T19:07:59.418Z,13.23
2018-11-03T19:10:28.124Z,12.80
2018-11-03T19:12:56.915Z,13.33
2018-11-03T19:15:25.582Z,13.30
2018-11-03T19:17:54.327Z,13.23
2018-11-03T19:20:23.358Z,11.57
2018-11-03T19:22:52.052Z,12.33
2018-11-03T19:25:20.822Z,11.07
2018-11-03T19:27:49.653Z,13.13
2018-11-03T19:30:18.540Z,12.60
2018-11-03T19:32:47.240Z,13.33
2018-11-03T19:35:16.252Z,16.70
2018-11-03T19:37:45.243Z,15.10
2018-11-03T19:40:14.534Z,15.30
2018-11-03T19:42:43.358Z,16.20
2018-11-03T19:45:12.633Z,18.40
2018-11-03T19:47:41.413Z,17.13
2018-11-03T19:50:10.699Z,15.20
2018-11-03T19:52:39.476Z,15.13
2018-11-03T19:55:08.209Z,14.67
2018-11-03T19:57:37.001Z,13.40
2018-11-03T20:00:08.477Z,13.63
2018-11-03T20:02:37.312Z,14.33
2018-11-03T20:05:06.764Z,14.03
2018-11-03T20:07:35.518Z,18.17
2018-11-03T20:10:04.477Z,25.77
2018-11-03T20:12:33.162Z,17.33
2018-11-03T20:15:01.897Z,16.10
2018-11-03T20:17:30.689Z,13.83
2018-11-03T20:19:59.486Z,15.57
2018-11-03T20:22:28.256Z,15.73
2018-11-03T20:24:56.982Z,16.17
2018-11-03T20:27:25.687Z,15.87
2018-11-03T20:29:54.411Z,14.37
2018-11-03T20:32:23.158Z,14.10
2018-11-03T20:34:51.897Z,12.60
2018-11-03T20:37:20.610Z,14.27
2018-11-03T20:39:49.416Z,14.33
2018-11-03T20:42:18.187Z,15.20
2018-11-03T20:44:46.961Z,13.80
2018-11-03T20:47:15.708Z,14.50
2018-11-03T20:49:44.457Z,15.00
2018-11-03T20:52:13.205Z,15.17
2018-11-03T20:54:41.945Z,14.67
2018-11-03T20:57:10.646Z,14.27
2018-11-03T20:59:39.418Z,16.73
2018-11-03T21:02:08.220Z,17.47
2018-11-03T21:04:36.961Z,15.67
2018-11-03T21:07:05.832Z,14.77
2018-11-03T21:09:34.603Z,13.83
2018-11-03T21:12:03.307Z,13.33
2018-11-03T21:14:32.054Z,14.17
2018-11-03T21:17:00.750Z,16.60
2018-11-03T21:19:29.488Z,15.00
2018-11-03T21:21:58.172Z,26.70
2018-11-03T21:24:26.927Z,31.37
2018-11-03T21:26:55.633Z,43.47
2018-11-03T21:29:24.450Z,60.70
2018-11-03T21:31:54.227Z,56.57
2018-11-03T21:34:22.949Z,49.90
2018-11-03T21:36:51.665Z,48.87
2018-11-03T21:39:20.391Z,31.30
2018-11-03T21:41:49.319Z,31.93
2018-11-03T21:44:18.031Z,29.57
2018-11-03T21:46:46.808Z,30.33
2018-11-03T21:49:15.653Z,27.47
2018-11-03T21:51:44.603Z,36.03
2018-11-03T21:54:13.407Z,31.27
2018-11-03T21:56:42.200Z,28.53
2018-11-03T21:59:10.966Z,28.73
2018-11-03T22:01:39.706Z,29.43
2018-11-03T22:04:08.598Z,24.20
2018-11-03T22:06:37.559Z,24.87
2018-11-03T22:09:09.625Z,24.00
2018-11-03T22:11:38.609Z,27.77
2018-11-03T22:14:07.713Z,24.07
2018-11-03T22:16:36.670Z,21.53
2018-11-03T22:19:05.674Z,24.63
2018-11-03T22:21:34.645Z,27.60
2018-11-03T22:24:03.653Z,31.40
2018-11-03T22:26:33.030Z,29.50
2018-11-03T22:29:03.354Z,30.40
2018-11-03T22:31:32.447Z,34.80
2018-11-03T22:34:01.512Z,28.00
2018-11-03T22:36:30.598Z,26.97
2018-11-03T22:39:00.123Z,27.77
2018-11-03T22:41:29.104Z,26.83
2018-11-03T22:43:58.020Z,27.60
2018-11-03T22:46:26.893Z,24.13
2018-11-03T22:48:55.664Z,24.40
2018-11-03T22:51:24.568Z,26.67
2018-11-03T22:59:35.191Z,30.13
2018-11-03T23:04:54.583Z,29.13
2018-11-03T23:07:23.448Z,31.57
2018-11-03T23:09:52.267Z,28.27
2018-11-03T23:12:21.037Z,26.10
2018-11-03T23:14:50.679Z,25.43
2018-11-03T23:17:19.457Z,24.43
2018-11-03T23:19:48.218Z,24.67
2018-11-03T23:22:17.114Z,25.07
2018-11-03T23:24:45.909Z,25.47
2018-11-03T23:27:14.734Z,22.80
2018-11-03T23:29:43.577Z,24.47
2018-11-03T23:32:12.271Z,35.70
2018-11-03T23:34:41.091Z,24.70
2018-11-03T23:37:10.951Z,26.30
2018-11-03T23:39:39.969Z,25.03
2018-11-03T23:42:08.990Z,22.17
2018-11-03T23:44:38.527Z,21.60
2018-11-03T23:47:07.437Z,20.63
2018-11-03T23:49:36.195Z,23.60
2018-11-03T23:52:04.922Z,26.30
2018-11-03T23:54:33.656Z,23.30
2018-11-03T23:57:02.435Z,23.73
2018-11-03T23:59:31.288Z,24.77
